sensor_id;sensor_type;location;lat;lon;timestamp;temperature;humidity
29353;DHT22;16344;50.364;8.944;2022-09-09T00:00:24;19.20;99.90
29353;DHT22;16344;50.364;8.944;2022-09-09T00:03:02;19.00;99.90
29353;DHT22;16344;50.364;8.944;2022-09-09T00:05:35;18.90;99.90
29353;DHT22;16344;50.364;8.944;2022-09-09T00:08:03;18.70;99.90
29353;DHT22;16344;50.364;8.944;2022-09-09T00:10:34;18.80;99.90
29353;DHT22;16344;50.364;8.944;2022-09-09T00:13:34;18.70;99.90
29353;DHT22;16344;50.364;8.944;2022-09-09T00:16:20;18.80;99.90
29353;DHT22;16344;50.364;8.944;2022-09-09T00:19:15;18.70;99.90
29353;DHT22;16344;50.364;8.944;2022-09-09T00:22:04;18.60;99.90
29353;DHT22;16344;50.364;8.944;2022-09-09T00:24:44;18.60;99.90
29353;DHT22;16344;50.364;8.944;2022-09-09T00:30:35;18.50;99.90
29353;DHT22;16344;50.364;8.944;2022-09-09T00:32:45;18.50;99.90
29353;DHT22;16344;50.364;8.944;2022-09-09T00:37:45;18.20;99.90
29353;DHT22;16344;50.364;8.944;2022-09-09T00:40:34;18.10;99.90
29353;DHT22;16344;50.364;8.944;2022-09-09T00:48:18;18.10;99.90
29353;DHT22;16344;50.364;8.944;2022-09-09T00:50:53;18.30;99.90
29353;DHT22;16344;50.364;8.944;2022-09-09T00:53:51;18.30;99.90
29353;DHT22;16344;50.364;8.944;2022-09-09T00:56:25;18.30;99.90
29353;DHT22;16344;50.364;8.944;2022-09-09T01:01:48;18.50;99.90
29353;DHT22;16344;50.364;8.944;2022-09-09T01:04:21;18.50;99.90
29353;DHT22;16344;50.364;8.944;2022-09-09T01:06:53;18.50;99.90
29353;DHT22;16344;50.364;8.944;2022-09-09T01:09:22;18.70;99.90
29353;DHT22;16344;50.364;8.944;2022-09-09T01:12:11;18.50;99.90
29353;DHT22;16344;50.364;8.944;2022-09-09T01:14:43;18.50;99.90
29353;DHT22;16344;50.364;8.944;2022-09-09T01:17:28;18.30;99.90
29353;DHT22;16344;50.364;8.944;2022-09-09T01:27:53;17.90;99.90
29353;DHT22;16344;50.364;8.944;2022-09-09T01:30:19;18.00;99.90
29353;DHT22;16344;50.364;8.944;2022-09-09T01:32:48;18.10;99.90
29353;DHT22;16344;50.364;8.944;2022-09-09T01:35:40;18.10;99.90
29353;DHT22;16344;50.364;8.944;2022-09-09T01:38:03;18.20;99.90
29353;DHT22;16344;50.364;8.944;2022-09-09T01:40:29;18.10;99.90
29353;DHT22;16344;50.364;8.944;2022-09-09T01:42:55;17.90;99.90
29353;DHT22;16344;50.364;8.944;2022-09-09T01:45:22;17.90;99.90
29353;DHT22;16344;50.364;8.944;2022-09-09T01:47:48;18.00;99.90
29353;DHT22;16344;50.364;8.944;2022-09-09T01:50:16;18.00;99.90
29353;DHT22;16344;50.364;8.944;2022-09-09T01:52:47;18.00;99.90
29353;DHT22;16344;50.364;8.944;2022-09-09T01:55:14;18.10;99.90
29353;DHT22;16344;50.364;8.944;2022-09-09T02:00:10;18.10;99.90
29353;DHT22;16344;50.364;8.944;2022-09-09T02:07:53;18.30;99.90
29353;DHT22;16344;50.364;8.944;2022-09-09T02:13:12;18.30;99.90
29353;DHT22;16344;50.364;8.944;2022-09-09T02:15:59;18.20;99.90
29353;DHT22;16344;50.364;8.944;2022-09-09T02:18:35;18.40;99.90
29353;DHT22;16344;50.364;8.944;2022-09-09T02:21:02;18.30;99.90
29353;DHT22;16344;50.364;8.944;2022-09-09T02:23:28;18.20;99.90
29353;DHT22;16344;50.364;8.944;2022-09-09T02:25:56;18.30;99.90
29353;DHT22;16344;50.364;8.944;2022-09-09T02:28:25;18.20;99.90
29353;DHT22;16344;50.364;8.944;2022-09-09T02:30:52;18.20;99.90
29353;DHT22;16344;50.364;8.944;2022-09-09T02:33:24;18.20;99.90
29353;DHT22;16344;50.364;8.944;2022-09-09T02:35:53;18.20;99.90
29353;DHT22;16344;50.364;8.944;2022-09-09T02:38:23;18.10;99.90
29353;DHT22;16344;50.364;8.944;2022-09-09T02:40:50;18.10;99.90
29353;DHT22;16344;50.364;8.944;2022-09-09T02:43:16;17.90;99.90
29353;DHT22;16344;50.364;8.944;2022-09-09T02:49:02;18.00;99.90
29353;DHT22;16344;50.364;8.944;2022-09-09T02:54:35;18.00;99.90
29353;DHT22;16344;50.364;8.944;2022-09-09T02:57:16;18.10;99.90
29353;DHT22;16344;50.364;8.944;2022-09-09T02:59:44;17.90;99.90
29353;DHT22;16344;50.364;8.944;2022-09-09T03:02:10;17.90;99.90
29353;DHT22;16344;50.364;8.944;2022-09-09T03:04:37;17.90;99.90
29353;DHT22;16344;50.364;8.944;2022-09-09T03:07:03;18.00;99.90
29353;DHT22;16344;50.364;8.944;2022-09-09T03:09:29;17.60;99.90
29353;DHT22;16344;50.364;8.944;2022-09-09T03:11:55;17.60;99.90
29353;DHT22;16344;50.364;8.944;2022-09-09T03:14:21;17.70;99.90
29353;DHT22;16344;50.364;8.944;2022-09-09T03:16:50;17.70;99.90
29353;DHT22;16344;50.364;8.944;2022-09-09T03:19:15;17.70;99.90
29353;DHT22;16344;50.364;8.944;2022-09-09T03:21:41;17.70;99.90
29353;DHT22;16344;50.364;8.944;2022-09-09T03:24:07;17.80;99.90
29353;DHT22;16344;50.364;8.944;2022-09-09T03:26:32;17.90;99.90
29353;DHT22;16344;50.364;8.944;2022-09-09T03:28:58;17.90;99.90
29353;DHT22;16344;50.364;8.944;2022-09-09T03:31:26;17.90;99.90
29353;DHT22;16344;50.364;8.944;2022-09-09T03:33:51;18.10;99.90
29353;DHT22;16344;50.364;8.944;2022-09-09T03:36:17;18.00;99.90
29353;DHT22;16344;50.364;8.944;2022-09-09T03:38:42;18.00;99.90
29353;DHT22;16344;50.364;8.944;2022-09-09T03:41:08;18.00;99.90
29353;DHT22;16344;50.364;8.944;2022-09-09T03:43:34;18.00;99.90
29353;DHT22;16344;50.364;8.944;2022-09-09T03:45:59;18.10;99.90
29353;DHT22;16344;50.364;8.944;2022-09-09T03:48:25;18.10;99.90
29353;DHT22;16344;50.364;8.944;2022-09-09T03:50:54;18.10;99.90
29353;DHT22;16344;50.364;8.944;2022-09-09T03:53:23;18.00;99.90
29353;DHT22;16344;50.364;8.944;2022-09-09T03:55:51;18.00;99.90
29353;DHT22;16344;50.364;8.944;2022-09-09T03:58:23;17.90;99.90
29353;DHT22;16344;50.364;8.944;2022-09-09T04:00:56;17.90;99.90
29353;DHT22;16344;50.364;8.944;2022-09-09T04:03:23;17.90;99.90
29353;DHT22;16344;50.364;8.944;2022-09-09T04:05:52;18.00;99.90
29353;DHT22;16344;50.364;8.944;2022-09-09T04:08:19;17.80;99.90
29353;DHT22;16344;50.364;8.944;2022-09-09T04:10:49;17.80;99.90
29353;DHT22;16344;50.364;8.944;2022-09-09T04:13:15;17.70;99.90
29353;DHT22;16344;50.364;8.944;2022-09-09T04:15:42;17.60;99.90
29353;DHT22;16344;50.364;8.944;2022-09-09T04:18:08;17.60;99.90
29353;DHT22;16344;50.364;8.944;2022-09-09T04:20:34;17.60;99.90
29353;DHT22;16344;50.364;8.944;2022-09-09T04:22:59;17.60;99.90
29353;DHT22;16344;50.364;8.944;2022-09-09T04:25:25;17.60;99.90
29353;DHT22;16344;50.364;8.944;2022-09-09T04:27:54;17.50;99.90
29353;DHT22;16344;50.364;8.944;2022-09-09T04:30:20;17.60;99.90
29353;DHT22;16344;50.364;8.944;2022-09-09T04:32:46;17.60;99.90
29353;DHT22;16344;50.364;8.944;2022-09-09T04:35:12;17.70;99.90
29353;DHT22;16344;50.364;8.944;2022-09-09T04:37:37;17.80;99.90
29353;DHT22;16344;50.364;8.944;2022-09-09T04:40:03;17.90;99.90
29353;DHT22;16344;50.364;8.944;2022-09-09T04:42:28;17.70;99.90
29353;DHT22;16344;50.364;8.944;2022-09-09T04:44:54;17.70;99.90
29353;DHT22;16344;50.364;8.944;2022-09-09T04:47:20;17.60;99.90
29353;DHT22;16344;50.364;8.944;2022-09-09T04:49:45;17.60;99.90
29353;DHT22;16344;50.364;8.944;2022-09-09T04:52:11;17.50;99.90
29353;DHT22;16344;50.364;8.944;2022-09-09T04:54:36;17.60;99.90
29353;DHT22;16344;50.364;8.944;2022-09-09T04:57:02;17.50;99.90
29353;DHT22;16344;50.364;8.944;2022-09-09T04:59:28;17.60;99.90
29353;DHT22;16344;50.364;8.944;2022-09-09T05:01:53;17.70;99.90
29353;DHT22;16344;50.364;8.944;2022-09-09T05:04:20;17.60;99.90
29353;DHT22;16344;50.364;8.944;2022-09-09T05:06:46;17.60;99.90
29353;DHT22;16344;50.364;8.944;2022-09-09T05:09:11;17.40;99.90
29353;DHT22;16344;50.364;8.944;2022-09-09T05:11:37;17.40;99.90
29353;DHT22;16344;50.364;8.944;2022-09-09T05:14:03;17.50;99.90
29353;DHT22;16344;50.364;8.944;2022-09-09T05:16:29;17.40;99.90
29353;DHT22;16344;50.364;8.944;2022-09-09T05:18:55;17.50;99.90
29353;DHT22;16344;50.364;8.944;2022-09-09T05:21:22;17.50;99.90
29353;DHT22;16344;50.364;8.944;2022-09-09T05:23:49;17.60;99.90
29353;DHT22;16344;50.364;8.944;2022-09-09T05:26:17;17.70;99.90
29353;DHT22;16344;50.364;8.944;2022-09-09T05:28:43;17.70;99.90
29353;DHT22;16344;50.364;8.944;2022-09-09T05:31:10;17.70;99.90
29353;DHT22;16344;50.364;8.944;2022-09-09T05:33:40;17.70;99.90
29353;DHT22;16344;50.364;8.944;2022-09-09T05:36:08;17.80;99.90
29353;DHT22;16344;50.364;8.944;2022-09-09T05:38:36;17.70;99.90
29353;DHT22;16344;50.364;8.944;2022-09-09T05:41:02;17.90;99.90
29353;DHT22;16344;50.364;8.944;2022-09-09T05:43:29;18.00;99.90
29353;DHT22;16344;50.364;8.944;2022-09-09T05:46:09;18.30;99.90
29353;DHT22;16344;50.364;8.944;2022-09-09T05:48:40;18.40;99.90
29353;DHT22;16344;50.364;8.944;2022-09-09T05:51:09;18.30;99.90
29353;DHT22;16344;50.364;8.944;2022-09-09T05:53:35;18.20;99.90
29353;DHT22;16344;50.364;8.944;2022-09-09T05:56:07;18.20;99.90
29353;DHT22;16344;50.364;8.944;2022-09-09T05:58:36;18.20;99.90
29353;DHT22;16344;50.364;8.944;2022-09-09T06:01:09;18.10;99.90
29353;DHT22;16344;50.364;8.944;2022-09-09T06:03:36;18.10;99.90
29353;DHT22;16344;50.364;8.944;2022-09-09T06:06:10;18.20;99.90
29353;DHT22;16344;50.364;8.944;2022-09-09T06:08:40;18.20;99.90
29353;DHT22;16344;50.364;8.944;2022-09-09T06:11:10;18.20;99.90
29353;DHT22;16344;50.364;8.944;2022-09-09T06:13:36;18.40;99.90
29353;DHT22;16344;50.364;8.944;2022-09-09T06:16:13;18.60;99.90
29353;DHT22;16344;50.364;8.944;2022-09-09T06:18:39;18.70;99.90
29353;DHT22;16344;50.364;8.944;2022-09-09T06:21:14;18.60;99.90
29353;DHT22;16344;50.364;8.944;2022-09-09T06:23:40;18.50;99.90
29353;DHT22;16344;50.364;8.944;2022-09-09T06:26:10;18.40;99.90
29353;DHT22;16344;50.364;8.944;2022-09-09T06:28:36;18.40;99.90
29353;DHT22;16344;50.364;8.944;2022-09-09T06:31:04;18.50;99.90
29353;DHT22;16344;50.364;8.944;2022-09-09T06:33:32;18.50;99.90
29353;DHT22;16344;50.364;8.944;2022-09-09T06:35:58;18.60;99.90
29353;DHT22;16344;50.364;8.944;2022-09-09T06:38:24;18.50;99.90
29353;DHT22;16344;50.364;8.944;2022-09-09T06:40:58;18.70;99.90
29353;DHT22;16344;50.364;8.944;2022-09-09T06:43:25;18.80;99.90
29353;DHT22;16344;50.364;8.944;2022-09-09T06:45:59;18.90;99.90
29353;DHT22;16344;50.364;8.944;2022-09-09T06:48:26;18.90;99.90
29353;DHT22;16344;50.364;8.944;2022-09-09T06:53:38;18.90;99.90
29353;DHT22;16344;50.364;8.944;2022-09-09T06:58:41;19.00;99.90
29353;DHT22;16344;50.364;8.944;2022-09-09T07:01:14;19.20;99.90
29353;DHT22;16344;50.364;8.944;2022-09-09T07:03:41;19.30;99.90
29353;DHT22;16344;50.364;8.944;2022-09-09T07:06:08;19.40;99.90
29353;DHT22;16344;50.364;8.944;2022-09-09T07:08:39;19.30;99.90
29353;DHT22;16344;50.364;8.944;2022-09-09T07:11:07;19.30;99.90
29353;DHT22;16344;50.364;8.944;2022-09-09T07:13:33;19.30;99.90
29353;DHT22;16344;50.364;8.944;2022-09-09T07:16:10;19.50;99.90
29353;DHT22;16344;50.364;8.944;2022-09-09T07:18:36;19.40;99.90
29353;DHT22;16344;50.364;8.944;2022-09-09T07:21:03;19.40;99.90
29353;DHT22;16344;50.364;8.944;2022-09-09T07:23:29;19.50;99.90
29353;DHT22;16344;50.364;8.944;2022-09-09T07:25:55;19.50;99.90
29353;DHT22;16344;50.364;8.944;2022-09-09T07:28:21;19.60;99.90
29353;DHT22;16344;50.364;8.944;2022-09-09T07:30:58;19.70;99.90
29353;DHT22;16344;50.364;8.944;2022-09-09T07:33:25;19.80;99.90
29353;DHT22;16344;50.364;8.944;2022-09-09T07:35:52;19.80;99.90
29353;DHT22;16344;50.364;8.944;2022-09-09T07:38:19;19.80;99.90
29353;DHT22;16344;50.364;8.944;2022-09-09T07:40:45;19.60;99.90
29353;DHT22;16344;50.364;8.944;2022-09-09T07:43:11;19.40;99.90
29353;DHT22;16344;50.364;8.944;2022-09-09T07:45:37;19.40;99.90
29353;DHT22;16344;50.364;8.944;2022-09-09T07:48:03;19.50;99.90
29353;DHT22;16344;50.364;8.944;2022-09-09T07:50:29;19.30;99.90
29353;DHT22;16344;50.364;8.944;2022-09-09T07:52:54;19.50;99.90
29353;DHT22;16344;50.364;8.944;2022-09-09T07:55:21;19.60;99.90
29353;DHT22;16344;50.364;8.944;2022-09-09T07:57:47;19.50;99.90
29353;DHT22;16344;50.364;8.944;2022-09-09T08:00:13;19.30;99.90
29353;DHT22;16344;50.364;8.944;2022-09-09T08:02:40;19.40;99.90
29353;DHT22;16344;50.364;8.944;2022-09-09T08:05:06;19.50;99.90
29353;DHT22;16344;50.364;8.944;2022-09-09T08:07:31;19.60;99.90
29353;DHT22;16344;50.364;8.944;2022-09-09T08:09:57;19.70;99.90
29353;DHT22;16344;50.364;8.944;2022-09-09T08:12:22;19.50;99.90
29353;DHT22;16344;50.364;8.944;2022-09-09T08:14:48;19.50;99.90
29353;DHT22;16344;50.364;8.944;2022-09-09T08:17:14;19.50;99.90
29353;DHT22;16344;50.364;8.944;2022-09-09T08:19:40;19.40;99.90
29353;DHT22;16344;50.364;8.944;2022-09-09T08:22:05;19.30;99.90
29353;DHT22;16344;50.364;8.944;2022-09-09T08:24:31;19.30;99.90
29353;DHT22;16344;50.364;8.944;2022-09-09T08:26:56;19.20;99.90
29353;DHT22;16344;50.364;8.944;2022-09-09T08:29:22;19.20;99.90
29353;DHT22;16344;50.364;8.944;2022-09-09T08:31:50;19.30;99.90
29353;DHT22;16344;50.364;8.944;2022-09-09T08:34:17;19.40;99.90
29353;DHT22;16344;50.364;8.944;2022-09-09T08:36:47;19.40;99.90
29353;DHT22;16344;50.364;8.944;2022-09-09T08:39:15;19.40;99.90
29353;DHT22;16344;50.364;8.944;2022-09-09T08:53:01;19.30;99.90
29353;DHT22;16344;50.364;8.944;2022-09-09T08:55:48;19.20;99.90
29353;DHT22;16344;50.364;8.944;2022-09-09T08:58:20;19.40;99.90
29353;DHT22;16344;50.364;8.944;2022-09-09T09:11:50;20.00;99.90
29353;DHT22;16344;50.364;8.944;2022-09-09T09:17:06;20.00;99.90
29353;DHT22;16344;50.364;8.944;2022-09-09T09:19:35;20.00;99.90
29353;DHT22;16344;50.364;8.944;2022-09-09T09:22:10;20.00;99.90
29353;DHT22;16344;50.364;8.944;2022-09-09T09:24:50;20.10;99.90
29353;DHT22;16344;50.364;8.944;2022-09-09T09:29:58;20.30;99.90
29353;DHT22;16344;50.364;8.944;2022-09-09T09:32:24;20.20;99.90
29353;DHT22;16344;50.364;8.944;2022-09-09T09:34:55;20.30;99.90
29353;DHT22;16344;50.364;8.944;2022-09-09T09:37:29;20.30;99.90
29353;DHT22;16344;50.364;8.944;2022-09-09T09:39:55;20.30;99.90
29353;DHT22;16344;50.364;8.944;2022-09-09T09:42:21;20.30;99.90
29353;DHT22;16344;50.364;8.944;2022-09-09T09:44:47;20.40;99.90
29353;DHT22;16344;50.364;8.944;2022-09-09T09:47:19;20.30;99.90
29353;DHT22;16344;50.364;8.944;2022-09-09T09:49:55;20.20;99.90
29353;DHT22;16344;50.364;8.944;2022-09-09T09:52:23;20.20;99.90
29353;DHT22;16344;50.364;8.944;2022-09-09T09:54:50;20.10;99.90
29353;DHT22;16344;50.364;8.944;2022-09-09T09:57:16;20.10;99.90
29353;DHT22;16344;50.364;8.944;2022-09-09T09:59:43;20.10;99.90
29353;DHT22;16344;50.364;8.944;2022-09-09T10:02:23;19.90;99.90
29353;DHT22;16344;50.364;8.944;2022-09-09T10:05:04;19.60;99.90
29353;DHT22;16344;50.364;8.944;2022-09-09T10:07:30;19.40;99.90
29353;DHT22;16344;50.364;8.944;2022-09-09T10:09:57;19.30;99.90
29353;DHT22;16344;50.364;8.944;2022-09-09T10:12:36;19.00;99.90
29353;DHT22;16344;50.364;8.944;2022-09-09T10:21:20;17.90;99.90
29353;DHT22;16344;50.364;8.944;2022-09-09T10:26:46;17.70;99.90
29353;DHT22;16344;50.364;8.944;2022-09-09T10:29:37;17.80;99.90
29353;DHT22;16344;50.364;8.944;2022-09-09T10:32:41;18.00;99.90
29353;DHT22;16344;50.364;8.944;2022-09-09T10:35:14;18.10;99.90
29353;DHT22;16344;50.364;8.944;2022-09-09T10:43:35;18.50;99.90
29353;DHT22;16344;50.364;8.944;2022-09-09T10:49:07;18.70;99.90
29353;DHT22;16344;50.364;8.944;2022-09-09T10:52:06;18.60;99.90
29353;DHT22;16344;50.364;8.944;2022-09-09T10:55:12;18.70;99.90
29353;DHT22;16344;50.364;8.944;2022-09-09T11:00:18;19.00;99.90
29353;DHT22;16344;50.364;8.944;2022-09-09T11:02:55;19.10;99.90
29353;DHT22;16344;50.364;8.944;2022-09-09T11:05:42;19.00;99.90
29353;DHT22;16344;50.364;8.944;2022-09-09T11:08:26;19.10;99.90
29353;DHT22;16344;50.364;8.944;2022-09-09T11:16:30;18.90;99.90
29353;DHT22;16344;50.364;8.944;2022-09-09T11:21:47;19.00;99.90
29353;DHT22;16344;50.364;8.944;2022-09-09T11:24:23;19.00;99.90
29353;DHT22;16344;50.364;8.944;2022-09-09T11:27:15;19.20;99.90
29353;DHT22;16344;50.364;8.944;2022-09-09T11:29:59;19.10;99.90
29353;DHT22;16344;50.364;8.944;2022-09-09T11:38:21;19.30;99.90
29353;DHT22;16344;50.364;8.944;2022-09-09T11:40:56;19.40;99.90
29353;DHT22;16344;50.364;8.944;2022-09-09T11:43:27;19.50;99.90
29353;DHT22;16344;50.364;8.944;2022-09-09T11:45:55;19.60;99.90
29353;DHT22;16344;50.364;8.944;2022-09-09T11:48:32;19.80;99.90
29353;DHT22;16344;50.364;8.944;2022-09-09T11:51:09;19.70;99.90
29353;DHT22;16344;50.364;8.944;2022-09-09T11:53:48;19.80;99.90
29353;DHT22;16344;50.364;8.944;2022-09-09T11:56:45;19.80;99.90
29353;DHT22;16344;50.364;8.944;2022-09-09T11:59:24;19.90;99.90
29353;DHT22;16344;50.364;8.944;2022-09-09T12:04:48;20.20;99.90
29353;DHT22;16344;50.364;8.944;2022-09-09T12:07:51;20.40;99.90
29353;DHT22;16344;50.364;8.944;2022-09-09T12:10:33;20.50;99.90
29353;DHT22;16344;50.364;8.944;2022-09-09T12:13:23;20.50;99.90
29353;DHT22;16344;50.364;8.944;2022-09-09T12:15:52;20.40;99.90
29353;DHT22;16344;50.364;8.944;2022-09-09T12:18:37;20.50;99.90
29353;DHT22;16344;50.364;8.944;2022-09-09T12:24:32;20.90;99.90
29353;DHT22;16344;50.364;8.944;2022-09-09T12:27:16;21.10;99.90
29353;DHT22;16344;50.364;8.944;2022-09-09T12:29:51;21.10;99.90
29353;DHT22;16344;50.364;8.944;2022-09-09T12:32:23;21.00;99.90
29353;DHT22;16344;50.364;8.944;2022-09-09T12:34:51;21.00;99.90
29353;DHT22;16344;50.364;8.944;2022-09-09T12:37:34;21.00;99.90
29353;DHT22;16344;50.364;8.944;2022-09-09T12:40:04;21.10;99.90
29353;DHT22;16344;50.364;8.944;2022-09-09T12:42:31;21.10;99.90
29353;DHT22;16344;50.364;8.944;2022-09-09T12:45:03;21.00;99.90
29353;DHT22;16344;50.364;8.944;2022-09-09T12:47:53;21.00;99.90
29353;DHT22;16344;50.364;8.944;2022-09-09T12:50:22;21.20;99.90
29353;DHT22;16344;50.364;8.944;2022-09-09T12:52:50;21.30;99.90
29353;DHT22;16344;50.364;8.944;2022-09-09T12:55:20;21.40;99.90
29353;DHT22;16344;50.364;8.944;2022-09-09T12:57:48;21.40;99.90
29353;DHT22;16344;50.364;8.944;2022-09-09T13:00:24;21.60;99.90
29353;DHT22;16344;50.364;8.944;2022-09-09T13:02:51;21.50;38.30
29353;DHT22;16344;50.364;8.944;2022-09-09T13:05:26;21.40;17.70
29353;DHT22;16344;50.364;8.944;2022-09-09T13:08:04;21.40;70.40
29353;DHT22;16344;50.364;8.944;2022-09-09T13:10:33;21.50;99.50
29353;DHT22;16344;50.364;8.944;2022-09-09T13:12:59;21.40;17.20
29353;DHT22;16344;50.364;8.944;2022-09-09T13:15:27;21.40;47.60
29353;DHT22;16344;50.364;8.944;2022-09-09T13:17:56;21.50;80.90
29353;DHT22;16344;50.364;8.944;2022-09-09T13:20:23;21.60;32.60
29353;DHT22;16344;50.364;8.944;2022-09-09T13:22:51;21.50;55.40
29353;DHT22;16344;50.364;8.944;2022-09-09T13:25:29;21.40;27.10
29353;DHT22;16344;50.364;8.944;2022-09-09T13:28:03;21.30;23.40
29353;DHT22;16344;50.364;8.944;2022-09-09T13:30:35;21.30;17.60
29353;DHT22;16344;50.364;8.944;2022-09-09T13:36:09;21.40;99.90
29353;DHT22;16344;50.364;8.944;2022-09-09T13:38:40;21.00;99.90
29353;DHT22;16344;50.364;8.944;2022-09-09T13:41:22;20.70;99.90
29353;DHT22;16344;50.364;8.944;2022-09-09T13:43:50;20.60;99.90
29353;DHT22;16344;50.364;8.944;2022-09-09T13:46:35;20.70;99.90
29353;DHT22;16344;50.364;8.944;2022-09-09T13:49:18;20.90;99.90
29353;DHT22;16344;50.364;8.944;2022-09-09T13:51:48;21.00;99.90
29353;DHT22;16344;50.364;8.944;2022-09-09T13:54:18;21.10;99.90
29353;DHT22;16344;50.364;8.944;2022-09-09T13:56:44;21.10;71.10
29353;DHT22;16344;50.364;8.944;2022-09-09T13:59:15;21.20;99.90
29353;DHT22;16344;50.364;8.944;2022-09-09T14:01:41;21.40;99.90
29353;DHT22;16344;50.364;8.944;2022-09-09T14:04:07;21.30;1.00
29353;DHT22;16344;50.364;8.944;2022-09-09T14:06:35;21.20;32.40
29353;DHT22;16344;50.364;8.944;2022-09-09T14:09:10;20.90;9.60
29353;DHT22;16344;50.364;8.944;2022-09-09T14:11:35;20.80;49.00
29353;DHT22;16344;50.364;8.944;2022-09-09T14:14:01;20.70;99.90
29353;DHT22;16344;50.364;8.944;2022-09-09T14:16:26;20.80;97.30
29353;DHT22;16344;50.364;8.944;2022-09-09T14:18:53;20.90;99.90
29353;DHT22;16344;50.364;8.944;2022-09-09T14:21:18;21.00;73.60
29353;DHT22;16344;50.364;8.944;2022-09-09T14:23:44;21.00;44.20
29353;DHT22;16344;50.364;8.944;2022-09-09T14:26:09;20.90;11.40
29353;DHT22;16344;50.364;8.944;2022-09-09T14:28:36;20.90;48.60
29353;DHT22;16344;50.364;8.944;2022-09-09T14:31:03;21.00;17.80
29353;DHT22;16344;50.364;8.944;2022-09-09T14:33:29;21.00;1.00
29353;DHT22;16344;50.364;8.944;2022-09-09T14:35:59;21.00;1.00
29353;DHT22;16344;50.364;8.944;2022-09-09T14:38:28;21.00;1.00
29353;DHT22;16344;50.364;8.944;2022-09-09T14:40:54;21.10;1.00
29353;DHT22;16344;50.364;8.944;2022-09-09T14:43:19;21.20;1.00
29353;DHT22;16344;50.364;8.944;2022-09-09T14:45:45;21.20;1.00
29353;DHT22;16344;50.364;8.944;2022-09-09T14:48:14;21.30;1.00
29353;DHT22;16344;50.364;8.944;2022-09-09T14:50:40;21.40;1.00
29353;DHT22;16344;50.364;8.944;2022-09-09T14:53:07;21.30;1.00
29353;DHT22;16344;50.364;8.944;2022-09-09T14:55:34;21.30;1.00
29353;DHT22;16344;50.364;8.944;2022-09-09T14:57:59;21.10;1.00
29353;DHT22;16344;50.364;8.944;2022-09-09T15:00:25;21.00;1.00
29353;DHT22;16344;50.364;8.944;2022-09-09T15:02:54;20.90;1.00
29353;DHT22;16344;50.364;8.944;2022-09-09T15:05:20;20.80;1.00
29353;DHT22;16344;50.364;8.944;2022-09-09T15:07:45;20.90;1.00
29353;DHT22;16344;50.364;8.944;2022-09-09T15:10:11;20.90;1.00
29353;DHT22;16344;50.364;8.944;2022-09-09T15:12:37;21.00;1.00
29353;DHT22;16344;50.364;8.944;2022-09-09T15:15:04;21.00;1.00
29353;DHT22;16344;50.364;8.944;2022-09-09T15:17:30;21.00;1.00
29353;DHT22;16344;50.364;8.944;2022-09-09T15:19:56;20.90;1.00
29353;DHT22;16344;50.364;8.944;2022-09-09T15:22:21;20.70;1.00
29353;DHT22;16344;50.364;8.944;2022-09-09T15:24:47;20.80;1.00
29353;DHT22;16344;50.364;8.944;2022-09-09T15:27:12;20.50;4.80
29353;DHT22;16344;50.364;8.944;2022-09-09T15:29:40;20.50;8.20
29353;DHT22;16344;50.364;8.944;2022-09-09T15:32:06;20.40;10.80
29353;DHT22;16344;50.364;8.944;2022-09-09T15:34:31;20.50;52.30
29353;DHT22;16344;50.364;8.944;2022-09-09T15:36:57;20.40;39.20
29353;DHT22;16344;50.364;8.944;2022-09-09T15:39:22;20.50;8.30
29353;DHT22;16344;50.364;8.944;2022-09-09T15:41:48;20.50;12.60
29353;DHT22;16344;50.364;8.944;2022-09-09T15:44:15;20.60;7.30
29353;DHT22;16344;50.364;8.944;2022-09-09T15:46:51;20.70;1.00
29353;DHT22;16344;50.364;8.944;2022-09-09T15:49:21;20.70;1.00
29353;DHT22;16344;50.364;8.944;2022-09-09T15:51:57;20.70;1.00
29353;DHT22;16344;50.364;8.944;2022-09-09T15:54:24;20.70;9.90
29353;DHT22;16344;50.364;8.944;2022-09-09T15:56:55;20.80;1.00
29353;DHT22;16344;50.364;8.944;2022-09-09T15:59:22;20.80;1.00
29353;DHT22;16344;50.364;8.944;2022-09-09T16:01:48;20.90;1.00
29353;DHT22;16344;50.364;8.944;2022-09-09T16:04:19;20.90;1.00
29353;DHT22;16344;50.364;8.944;2022-09-09T16:06:50;20.80;1.00
29353;DHT22;16344;50.364;8.944;2022-09-09T16:09:16;20.80;1.00
29353;DHT22;16344;50.364;8.944;2022-09-09T16:11:41;20.60;1.00
29353;DHT22;16344;50.364;8.944;2022-09-09T16:14:07;20.60;1.00
29353;DHT22;16344;50.364;8.944;2022-09-09T16:16:33;20.60;6.20
29353;DHT22;16344;50.364;8.944;2022-09-09T16:19:03;20.60;20.20
29353;DHT22;16344;50.364;8.944;2022-09-09T16:21:32;20.70;11.20
29353;DHT22;16344;50.364;8.944;2022-09-09T16:24:00;20.50;18.80
29353;DHT22;16344;50.364;8.944;2022-09-09T16:26:27;20.60;33.60
29353;DHT22;16344;50.364;8.944;2022-09-09T16:28:52;20.60;40.50
29353;DHT22;16344;50.364;8.944;2022-09-09T16:31:23;20.50;38.30
29353;DHT22;16344;50.364;8.944;2022-09-09T16:33:49;20.40;31.30
29353;DHT22;16344;50.364;8.944;2022-09-09T16:36:18;20.30;44.10
29353;DHT22;16344;50.364;8.944;2022-09-09T16:38:44;20.30;49.00
29353;DHT22;16344;50.364;8.944;2022-09-09T16:41:11;20.20;45.90
29353;DHT22;16344;50.364;8.944;2022-09-09T16:43:37;20.20;70.80
29353;DHT22;16344;50.364;8.944;2022-09-09T16:46:09;20.20;69.50
29353;DHT22;16344;50.364;8.944;2022-09-09T16:48:36;20.30;74.80
29353;DHT22;16344;50.364;8.944;2022-09-09T16:51:07;20.20;94.20
29353;DHT22;16344;50.364;8.944;2022-09-09T16:53:33;20.20;99.30
29353;DHT22;16344;50.364;8.944;2022-09-09T16:56:08;20.20;99.90
29353;DHT22;16344;50.364;8.944;2022-09-09T16:58:34;20.20;99.90
29353;DHT22;16344;50.364;8.944;2022-09-09T17:01:01;20.20;99.90
29353;DHT22;16344;50.364;8.944;2022-09-09T17:03:27;20.10;99.90
29353;DHT22;16344;50.364;8.944;2022-09-09T17:05:53;20.00;99.90
29353;DHT22;16344;50.364;8.944;2022-09-09T17:08:18;19.90;99.90
29353;DHT22;16344;50.364;8.944;2022-09-09T17:10:44;19.80;99.90
29353;DHT22;16344;50.364;8.944;2022-09-09T17:13:10;19.80;99.90
29353;DHT22;16344;50.364;8.944;2022-09-09T17:15:41;19.70;99.90
29353;DHT22;16344;50.364;8.944;2022-09-09T17:18:11;19.70;99.90
29353;DHT22;16344;50.364;8.944;2022-09-09T17:20:41;19.70;99.90
29353;DHT22;16344;50.364;8.944;2022-09-09T17:23:08;19.70;99.90
29353;DHT22;16344;50.364;8.944;2022-09-09T17:25:34;19.70;99.90
29353;DHT22;16344;50.364;8.944;2022-09-09T17:28:00;19.70;99.90
29353;DHT22;16344;50.364;8.944;2022-09-09T17:30:29;19.80;99.90
29353;DHT22;16344;50.364;8.944;2022-09-09T17:32:56;19.70;99.90
29353;DHT22;16344;50.364;8.944;2022-09-09T17:35:22;19.60;99.90
29353;DHT22;16344;50.364;8.944;2022-09-09T17:37:47;19.50;99.90
29353;DHT22;16344;50.364;8.944;2022-09-09T17:40:13;19.40;99.90
29353;DHT22;16344;50.364;8.944;2022-09-09T17:42:38;19.40;99.90
29353;DHT22;16344;50.364;8.944;2022-09-09T17:45:06;19.30;99.90